Latest Coastal Weather Observations for Low Isles

IDQ60701

Issued at 9:22 pm EST Friday 7 October 2022 (issued every 10 minutes, with the page automatically refreshed every 10 minutes)

About coastal observations | Map of coastal stations | Coastal observations for QLD | Marine services | Other Formats
Station Details ID: 031037 Name: LOW ISLES LIGHTHOUSE Lat: -16.38 Lon: 145.56 Height: 2.9 m
Data from the previous 72 hours. | See also: Recent months at Low Isles
Date/Time
EST
Wind Sea
Height
m
Swell Vis
km
Cloud Weather Temp
°C
Press
MSL
hPa
Rain since
9am
mm
Dir  Spd
kts
Gust
kts
Height
m
Period
s
Dir
07/09:00pm E 16 21 - - - - - - Recent precip. 25.2 1014.1 1.2
07/08:30pm ENE 18 23 - - - - - - - 25.3 1013.8 1.2
07/08:00pm E 14 18 - - - - - - - 26.1 1013.5 0.8
07/07:30pm E 14 17 - - - - - - - 26.2 1013.2 0.8
07/07:00pm E 15 18 - - - - - - - 26.4 1012.9 0.8
07/06:30pm E 16 20 - - - - - - - 26.2 1012.5 0.8
07/06:00pm ESE 14 17 - - - - - - - 26.5 1012.4 0.8
07/05:30pm ESE 11 13 - - - - - - - 26.1 1012.1 0.8
07/05:00pm SE 15 19 - - - - - - - 25.1 1012.0 0.8
07/04:30pm ESE 17 21 - - - - - - - 25.6 1012.0 0.6
07/04:00pm ESE 13 16 - - - - - - - 28.6 1011.8 0.4
07/03:30pm ESE 13 16 - - - - - - - 26.8 1011.9 0.4
07/03:00pm E 12 17 - - - - - - - 30.0 1011.9 0.4
07/02:30pm ESE 15 19 - - - - - - - 30.1 1012.1 0.4
07/02:00pm ESE 13 19 - - - - - - - 28.4 1012.5 0.4
07/01:30pm SE 13 16 - - - - - - - 29.5 1012.8 0.2
07/01:00pm ESE 13 17 - - - - - - - 27.6 1013.2 0.2
07/12:30pm SE 14 16 - - - - - - - 30.3 1013.6 0.0
07/12:00pm SE 14 18 - - - - - - - 29.9 1014.2 0.0
07/11:30am ESE 14 17 - - - - - - - 29.9 1014.6 0.0
07/11:00am SE 13 16 - - - - - - - 28.7 1015.0 0.0
07/10:30am SE 14 17 - - - - - - - 28.3 1015.4 0.0
07/10:00am SSE 12 14 - - - - - - - 26.9 1015.6 0.0
07/09:30am ESE 14 17 - - - - - - - 28.6 1015.5 0.0
07/09:00am ESE 13 18 - - - - - - - 28.3 1015.3 0.2
07/08:30am SE 13 17 - - - - - - - 26.7 1015.3 0.2
07/08:00am ESE 11 14 - - - - - - - 26.8 1015.1 0.2
07/07:30am SE 12 13 - - - - - - - 26.1 1014.6 0.2
07/07:00am SE 13 14 - - - - - - - 25.7 1014.2 0.2
07/06:30am SSE 11 13 - - - - - - - 25.4 1013.9 0.2
07/06:00am SSE 13 15 - - - - - - - 25.2 1013.4 0.2
07/05:30am SSE 15 17 - - - - - - - 25.3 1013.2 0.2
07/05:00am E 13 16 - - - - - - - 26.0 1012.8 0.2
07/04:30am ESE 15 19 - - - - - - - 26.0 1012.6 0.2
07/04:00am E 15 19 - - - - - - - 25.9 1012.5 0.2
07/03:30am E 15 19 - - - - - - - 25.7 1012.4 0.2
07/03:00am ESE 14 18 - - - - - - Recent precip. 25.3 1012.4 0.2
07/02:30am E 14 20 - - - - - - - 24.8 1012.7 0.2
07/02:03am ESE 15 26 - - - - - - - 25.5 1013.0 0.0
07/02:00am ESE 14 18 - - - - - - - 25.5 1013.0 0.0
07/01:30am ESE 13 17 - - - - - - - 25.9 1013.3 0.0
07/01:00am ESE 16 19 - - - - - - - 25.9 1013.5 0.0
07/12:30am ESE 17 20 - - - - - - - 26.0 1014.0 0.0
07/12:00am ESE 15 20 - - - - - - - 26.1 1014.5 0.0
 
Date/Time
EST
Wind Sea
Height
m
Swell Vis
km
Cloud Weather Temp
°C
Press
MSL
hPa
Rain since
9am
mm
Dir  Spd
kts
Gust
kts
Height
m
Period
s
Dir
06/11:30pm ESE 14 19 - - - - - - - 26.1 1014.6 0.0
06/11:00pm E 14 18 - - - - - - - 26.3 1014.9 0.0
06/10:30pm ESE 14 19 - - - - - - - 26.3 1015.0 0.0
06/10:00pm ESE 16 20 - - - - - - - 26.3 1015.1 0.0
06/09:30pm ESE 16 19 - - - - - - - 26.4 1015.0 0.0
06/09:00pm ESE 17 22 - - - - - - - 26.3 1014.6 0.0
06/08:30pm ESE 18 22 - - - - - - - 26.5 1014.4 0.0
06/08:00pm E 16 20 - - - - - - - 26.4 1014.1 0.0
06/07:30pm ESE 16 21 - - - - - - - 26.4 1013.8 0.0
06/07:00pm ESE 16 20 - - - - - - - 26.5 1013.6 0.0
06/06:30pm ESE 15 19 - - - - - - - 26.7 1013.3 0.0
06/06:00pm ESE 16 19 - - - - - - - 26.9 1013.1 0.0
06/05:30pm ESE 15 18 - - - - - - - 27.3 1012.7 0.0
06/05:00pm ESE 15 20 - - - - - - - 27.8 1012.6 0.0
06/04:30pm E 14 18 - - - - - - - 28.3 1012.4 0.0
06/04:00pm E 14 17 - - - - - - - 28.8 1012.3 0.0
06/03:30pm ESE 15 19 - - - - - - - 29.2 1012.4 0.0
06/03:00pm ESE 15 19 - - - - - - - 29.9 1012.6 0.0
06/02:30pm ESE 16 19 - - - - - - - 30.2 1012.9 0.0
06/02:00pm ESE 16 20 - - - - - - - 30.7 1013.2 0.0
06/01:30pm ESE 15 19 - - - - - - - 31.1 1013.4 0.0
06/01:00pm ESE 14 19 - - - - - - - 31.7 1013.9 0.0
06/12:30pm E 15 19 - - - - - - - 30.2 1014.5 0.0
06/12:00pm ENE 9 14 - - - - - - - 30.4 1015.1 0.0
06/11:30am E 14 19 - - - - - - - 29.4 1015.5 0.0
06/11:00am E 11 15 - - - - - - - 29.2 1015.7 0.0
06/10:30am ESE 12 16 - - - - - - - 28.1 1015.8 0.0
06/10:00am SE 13 14 - - - - - - - 26.2 1016.1 0.0
06/09:30am SE 12 15 - - - - - - - 25.8 1016.0 0.0
06/09:00am SE 15 18 - - - - - - - 25.9 1015.9 0.4
06/08:30am SSE 14 16 - - - - - - - 25.2 1015.6 0.4
06/08:00am SSE 14 16 - - - - - - - 25.4 1015.3 0.4
06/07:30am SSE 12 15 - - - - - - - 25.5 1014.9 0.4
06/07:00am ESE 10 13 - - - - - - - 25.7 1014.6 0.4
06/06:30am SE 13 15 - - - - - - - 25.3 1014.5 0.4
06/06:00am ESE 12 15 - - - - - - Recent precip. 25.4 1014.2 0.4
06/05:30am SE 13 15 - - - - - - - 25.1 1014.0 0.4
06/05:00am SE 13 15 - - - - - - - 25.1 1013.7 0.2
06/04:30am SE 14 15 - - - - - - - 24.9 1013.2 0.2
06/04:00am SE 15 18 - - - - - - - 24.8 1012.9 0.2
06/03:30am SSE 12 16 - - - - - - - 24.5 1012.9 0.2
06/03:00am SSE 15 19 - - - - - - - 24.5 1013.2 0.0
06/02:30am SE 13 15 - - - - - - - 24.4 1013.5 0.0
06/02:00am SE 17 19 - - - - - - - 24.2 1013.9 0.0
06/01:30am SE 13 15 - - - - - - - 24.9 1014.3 0.0
06/01:00am SE 13 15 - - - - - - - 24.8 1014.8 0.0
06/12:30am SE 13 15 - - - - - - - 24.9 1015.2 0.0
06/12:00am SE 14 16 - - - - - - - 25.4 1015.5 0.0
 
Date/Time
EST
Wind Sea
Height
m
Swell Vis
km
Cloud Weather Temp
°C
Press
MSL
hPa
Rain since
9am
mm
Dir  Spd
kts
Gust
kts
Height
m
Period
s
Dir
05/11:30pm SE 13 16 - - - - - - - 25.6 1016.0 0.0
05/11:00pm ESE 13 16 - - - - - - - 26.0 1016.5 0.0
05/10:30pm ESE 13 15 - - - - - - - 26.0 1016.4 0.0
05/10:00pm ESE 14 16 - - - - - - - 26.2 1016.5 0.0
05/09:30pm ESE 12 15 - - - - - - - 26.0 1016.4 0.0
05/09:00pm ESE 13 16 - - - - - - - 26.0 1016.2 0.0
05/08:30pm ESE 14 17 - - - - - - - 26.0 1016.1 0.0
05/08:00pm ESE 14 17 - - - - - - - 26.1 1015.9 0.0
05/07:30pm ESE 14 16 - - - - - - - 26.2 1015.5 0.0
05/07:00pm ESE 13 17 - - - - - - - 26.1 1015.0 0.0
05/06:30pm ESE 12 15 - - - - - - - 26.3 1014.7 0.0
05/06:00pm ESE 13 16 - - - - - - - 26.4 1014.5 0.0
05/05:30pm ESE 12 15 - - - - - - - 26.7 1014.0 0.0
05/05:00pm ESE 12 17 - - - - - - - 27.5 1013.6 0.0
05/04:30pm ESE 11 15 - - - - - - - 27.7 1013.4 0.0
05/04:00pm ESE 13 15 - - - - - - - 27.9 1013.2 0.0
05/03:30pm ESE 13 16 - - - - - - - 28.2 1013.0 0.0
05/03:00pm ESE 13 16 - - - - - - - 28.8 1013.2 0.0
05/02:30pm ESE 13 17 - - - - - - - 28.7 1013.4 0.0
05/02:00pm ESE 14 17 - - - - - - - 29.6 1013.9 0.0
05/01:30pm ESE 13 16 - - - - - - - 30.2 1014.2 0.0
05/01:00pm E 12 17 - - - - - - - 30.1 1014.4 0.0
05/12:30pm ESE 13 16 - - - - - - - 30.7 1014.8 0.0
05/12:00pm E 13 17 - - - - - - - 31.5 1015.2 0.0
05/11:30am E 13 17 - - - - - - - 31.9 1015.5 0.0
05/11:00am E 15 18 - - - - - - - 30.4 1015.8 0.0
05/10:30am E 15 19 - - - - - - - 29.9 1016.0 0.0
05/10:00am E 15 19 - - - - - - - 28.8 1016.4 0.0
05/09:30am E 16 21 - - - - - - - 27.9 1016.5 0.0
05/09:00am E 14 18 - - - - - - - 28.4 1016.6 0.8
05/08:30am ESE 10 14 - - - - - - - 25.6 1016.5 0.8
05/08:12am E 15 25 - - - - - - - 26.3 1016.2 0.8
05/08:00am E 15 18 - - - - - - - 27.3 1015.9 0.8
05/07:30am E 14 19 - - - - - - - 26.1 1015.6 0.8
05/07:00am E 13 17 - - - - - - - 26.0 1015.1 0.8
05/06:30am E 13 18 - - - - - - - 25.8 1014.6 0.8
05/06:00am E 14 18 - - - - - - - 25.7 1014.1 0.8
05/05:30am ESE 13 16 - - - - - - - 25.6 1013.7 0.8
05/05:00am E 14 17 - - - - - - - 25.7 1013.4 0.8
05/04:30am ESE 13 15 - - - - - - - 25.6 1013.0 0.8
05/04:00am ESE 13 18 - - - - - - - 25.6 1012.7 0.8
05/03:30am ESE 14 18 - - - - - - - 25.6 1012.9 0.8
05/03:00am ESE 13 17 - - - - - - - 25.6 1012.8 0.8
05/02:30am E 11 14 - - - - - - - 25.6 1012.8 0.8
05/02:00am E 13 16 - - - - - - - 25.6 1013.0 0.8
05/01:30am ESE 13 16 - - - - - - - 25.6 1013.2 0.8
05/01:00am E 14 19 - - - - - - - 25.7 1013.6 0.8
05/12:30am E 14 17 - - - - - - - 25.8 1014.2 0.8
05/12:00am E 14 20 - - - - - - - 26.0 1014.6 0.8
 
Date/Time
EST
Wind Sea
Height
m
Swell Vis
km
Cloud Weather Temp
°C
Press
MSL
hPa
Rain since
9am
mm
Dir  Spd
kts
Gust
kts
Height
m
Period
s
Dir
04/11:30pm E 13 17 - - - - - - - 26.1 1014.8 0.8
04/11:00pm E 14 18 - - - - - - - 26.0 1014.9 0.8
04/10:30pm ENE 15 19 - - - - - - - 25.8 1015.2 0.8
04/10:00pm ENE 15 20 - - - - - - - 25.7 1015.1 0.8
04/09:30pm ENE 18 23 - - - - - - - 25.5 1014.9 0.8

Other formats

Comma delimited format used in spreadsheet applications
http://www.bom.gov.au/fwo/IDQ60701/IDQ60701.94285.axf

JavaScript Object Notation format (JSON) in row-major order
http://www.bom.gov.au/fwo/IDQ60701/IDQ60701.94285.json

Data quality

Most of these data are generated automatically and are frequently updated. Quality checks on data are not normally performed. It is possible for incorrect values to appear. Refer to information at About Latest Weather Observations and please check the disclaimer before using these data.